<?xml version="1.0" encoding="UTF-8" standalone="no" ?>
<gpx xmlns="http://www.topografix.com/GPX/1/1" xmlns:xsi="http://www.w3.org/2001/XMLSchema-instance" xsi:schemaLocation="http://www.topografix.com/GPX/1/1 http://www.topografix.com/GPX/1/1/gpx.xsd" version="1.1" creator="VisuGPX - https://www.visugpx.com">
  <metadata>
    <name>12701143-LA GUILLERMIE</name>
    <desc><![CDATA[Circuit non balisé en totalité car rallongé, à faire avec la carte en main où gps de randonnée.]]></desc>
  </metadata>
  <trk>
    <name><![CDATA[12701143-LA GUILLERMIE]]></name>
    <trkseg>
      <trkpt lat="45.98331" lon="3.63899">
        <ele>728</ele>
        <time>2022-04-15T04:09:03Z</time>
      </trkpt>
      <trkpt lat="45.98332" lon="3.63862">
        <ele>729</ele>
        <time>2022-04-15T04:09:37Z</time>
      </trkpt>
      <trkpt lat="45.98319" lon="3.6383">
        <ele>730</ele>
        <time>2022-04-15T04:10:12Z</time>
      </trkpt>
      <trkpt lat="45.9836" lon="3.63684">
        <ele>741</ele>
        <time>2022-04-15T04:12:38Z</time>
      </trkpt>
      <trkpt lat="45.98515" lon="3.63671">
        <ele>754</ele>
        <time>2022-04-15T04:16:05Z</time>
      </trkpt>
      <trkpt lat="45.98665" lon="3.63703">
        <ele>748</ele>
        <time>2022-04-15T04:19:27Z</time>
      </trkpt>
      <trkpt lat="45.98814" lon="3.63607">
        <ele>758</ele>
        <time>2022-04-15T04:23:05Z</time>
      </trkpt>
      <trkpt lat="45.98861" lon="3.63614">
        <ele>767</ele>
        <time>2022-04-15T04:24:08Z</time>
      </trkpt>
      <trkpt lat="45.9898" lon="3.63534">
        <ele>782</ele>
        <time>2022-04-15T04:27:03Z</time>
      </trkpt>
      <trkpt lat="45.99049" lon="3.63529">
        <ele>785</ele>
        <time>2022-04-15T04:28:36Z</time>
      </trkpt>
      <trkpt lat="45.99224" lon="3.63338">
        <ele>776</ele>
        <time>2022-04-15T04:33:29Z</time>
      </trkpt>
      <trkpt lat="45.9935" lon="3.63178">
        <ele>752</ele>
        <time>2022-04-15T04:37:13Z</time>
      </trkpt>
      <trkpt lat="45.99393" lon="3.63007">
        <ele>726</ele>
        <time>2022-04-15T04:40:02Z</time>
      </trkpt>
      <trkpt lat="45.99568" lon="3.62862">
        <ele>713</ele>
        <time>2022-04-15T04:44:31Z</time>
      </trkpt>
      <trkpt lat="45.99677" lon="3.63107">
        <ele>706</ele>
        <time>2022-04-15T04:49:01Z</time>
      </trkpt>
      <trkpt lat="45.99782" lon="3.63087">
        <ele>711</ele>
        <time>2022-04-15T04:51:22Z</time>
      </trkpt>
      <trkpt lat="45.99877" lon="3.63075">
        <ele>712</ele>
        <time>2022-04-15T04:53:29Z</time>
      </trkpt>
      <trkpt lat="45.99939" lon="3.63046">
        <ele>712</ele>
        <time>2022-04-15T04:54:56Z</time>
      </trkpt>
      <trkpt lat="46.0003" lon="3.62972">
        <ele>702</ele>
        <time>2022-04-15T04:57:16Z</time>
      </trkpt>
      <trkpt lat="45.99997" lon="3.63286">
        <ele>678</ele>
        <time>2022-04-15T05:02:10Z</time>
      </trkpt>
      <trkpt lat="46.00048" lon="3.63384">
        <ele>667</ele>
        <time>2022-04-15T05:04:04Z</time>
      </trkpt>
      <trkpt lat="46.0012" lon="3.6345">
        <ele>660</ele>
        <time>2022-04-15T05:05:58Z</time>
      </trkpt>
      <trkpt lat="46.00133" lon="3.635">
        <ele>658</ele>
        <time>2022-04-15T05:06:47Z</time>
      </trkpt>
      <trkpt lat="46.00095" lon="3.63662">
        <ele>650</ele>
        <time>2022-04-15T05:09:26Z</time>
      </trkpt>
      <trkpt lat="46.00099" lon="3.63748">
        <ele>642</ele>
        <time>2022-04-15T05:10:45Z</time>
      </trkpt>
      <trkpt lat="46.00035" lon="3.63813">
        <ele>634</ele>
        <time>2022-04-15T05:12:30Z</time>
      </trkpt>
      <trkpt lat="46.00046" lon="3.6394">
        <ele>621</ele>
        <time>2022-04-15T05:14:29Z</time>
      </trkpt>
      <trkpt lat="46.0003" lon="3.63996">
        <ele>617</ele>
        <time>2022-04-15T05:15:25Z</time>
      </trkpt>
      <trkpt lat="46.00043" lon="3.64084">
        <ele>607</ele>
        <time>2022-04-15T05:16:48Z</time>
      </trkpt>
      <trkpt lat="46.00007" lon="3.64126">
        <ele>603</ele>
        <time>2022-04-15T05:17:50Z</time>
      </trkpt>
      <trkpt lat="46.00054" lon="3.64259">
        <ele>585</ele>
        <time>2022-04-15T05:20:08Z</time>
      </trkpt>
      <trkpt lat="46.00032" lon="3.64357">
        <ele>590</ele>
        <time>2022-04-15T05:21:44Z</time>
      </trkpt>
      <trkpt lat="46.00063" lon="3.64431">
        <ele>586</ele>
        <time>2022-04-15T05:23:04Z</time>
      </trkpt>
      <trkpt lat="46.00064" lon="3.64481">
        <ele>587</ele>
        <time>2022-04-15T05:23:50Z</time>
      </trkpt>
      <trkpt lat="46.00102" lon="3.64477">
        <ele>587</ele>
        <time>2022-04-15T05:24:41Z</time>
      </trkpt>
      <trkpt lat="46.00245" lon="3.64559">
        <ele>612</ele>
        <time>2022-04-15T05:28:07Z</time>
      </trkpt>
      <trkpt lat="46.00357" lon="3.64593">
        <ele>629</ele>
        <time>2022-04-15T05:30:39Z</time>
      </trkpt>
      <trkpt lat="46.00386" lon="3.64558">
        <ele>633</ele>
        <time>2022-04-15T05:31:30Z</time>
      </trkpt>
      <trkpt lat="46.00464" lon="3.64734">
        <ele>646</ele>
        <time>2022-04-15T05:34:43Z</time>
      </trkpt>
      <trkpt lat="46.00462" lon="3.64776">
        <ele>647</ele>
        <time>2022-04-15T05:35:22Z</time>
      </trkpt>
      <trkpt lat="46.00242" lon="3.64898">
        <ele>653</ele>
        <time>2022-04-15T05:40:37Z</time>
      </trkpt>
      <trkpt lat="46.00154" lon="3.64889">
        <ele>645</ele>
        <time>2022-04-15T05:42:35Z</time>
      </trkpt>
      <trkpt lat="45.99979" lon="3.64915">
        <ele>634</ele>
        <time>2022-04-15T05:46:29Z</time>
      </trkpt>
      <trkpt lat="45.99908" lon="3.64925">
        <ele>630</ele>
        <time>2022-04-15T05:48:05Z</time>
      </trkpt>
      <trkpt lat="45.99851" lon="3.64954">
        <ele>627</ele>
        <time>2022-04-15T05:49:25Z</time>
      </trkpt>
      <trkpt lat="45.99773" lon="3.65009">
        <ele>621</ele>
        <time>2022-04-15T05:51:21Z</time>
      </trkpt>
      <trkpt lat="45.99718" lon="3.65083">
        <ele>630</ele>
        <time>2022-04-15T05:53:02Z</time>
      </trkpt>
      <trkpt lat="45.99688" lon="3.65036">
        <ele>634</ele>
        <time>2022-04-15T05:54:01Z</time>
      </trkpt>
      <trkpt lat="45.9967" lon="3.64926">
        <ele>629</ele>
        <time>2022-04-15T05:55:46Z</time>
      </trkpt>
      <trkpt lat="45.99594" lon="3.64923">
        <ele>643</ele>
        <time>2022-04-15T05:57:27Z</time>
      </trkpt>
      <trkpt lat="45.99443" lon="3.64957">
        <ele>657</ele>
        <time>2022-04-15T06:00:51Z</time>
      </trkpt>
      <trkpt lat="45.99357" lon="3.65048">
        <ele>666</ele>
        <time>2022-04-15T06:03:13Z</time>
      </trkpt>
      <trkpt lat="45.99274" lon="3.65055">
        <ele>666</ele>
        <time>2022-04-15T06:05:04Z</time>
      </trkpt>
      <trkpt lat="45.99103" lon="3.6498">
        <ele>666</ele>
        <time>2022-04-15T06:09:03Z</time>
      </trkpt>
      <trkpt lat="45.98973" lon="3.64925">
        <ele>664</ele>
        <time>2022-04-15T06:12:04Z</time>
      </trkpt>
      <trkpt lat="45.98936" lon="3.6487">
        <ele>653</ele>
        <time>2022-04-15T06:13:15Z</time>
      </trkpt>
      <trkpt lat="45.98916" lon="3.64832">
        <ele>646</ele>
        <time>2022-04-15T06:13:59Z</time>
      </trkpt>
      <trkpt lat="45.98884" lon="3.64805">
        <ele>648</ele>
        <time>2022-04-15T06:14:48Z</time>
      </trkpt>
      <trkpt lat="45.98873" lon="3.64757">
        <ele>649</ele>
        <time>2022-04-15T06:15:35Z</time>
      </trkpt>
      <trkpt lat="45.98836" lon="3.6462">
        <ele>649</ele>
        <time>2022-04-15T06:17:52Z</time>
      </trkpt>
      <trkpt lat="45.98862" lon="3.6455">
        <ele>655</ele>
        <time>2022-04-15T06:19:05Z</time>
      </trkpt>
      <trkpt lat="45.98921" lon="3.64569">
        <ele>655</ele>
        <time>2022-04-15T06:20:26Z</time>
      </trkpt>
      <trkpt lat="45.99073" lon="3.64656">
        <ele>659</ele>
        <time>2022-04-15T06:24:04Z</time>
      </trkpt>
      <trkpt lat="45.99213" lon="3.64727">
        <ele>653</ele>
        <time>2022-04-15T06:27:22Z</time>
      </trkpt>
      <trkpt lat="45.99301" lon="3.64697">
        <ele>663</ele>
        <time>2022-04-15T06:29:23Z</time>
      </trkpt>
      <trkpt lat="45.99377" lon="3.64651">
        <ele>670</ele>
        <time>2022-04-15T06:31:13Z</time>
      </trkpt>
      <trkpt lat="45.99423" lon="3.64601">
        <ele>674</ele>
        <time>2022-04-15T06:32:30Z</time>
      </trkpt>
      <trkpt lat="45.99467" lon="3.64574">
        <ele>671</ele>
        <time>2022-04-15T06:33:34Z</time>
      </trkpt>
      <trkpt lat="45.99518" lon="3.64477">
        <ele>681</ele>
        <time>2022-04-15T06:35:26Z</time>
      </trkpt>
      <trkpt lat="45.99581" lon="3.6442">
        <ele>675</ele>
        <time>2022-04-15T06:37:06Z</time>
      </trkpt>
      <trkpt lat="45.99475" lon="3.64398">
        <ele>706</ele>
        <time>2022-04-15T06:39:29Z</time>
      </trkpt>
      <trkpt lat="45.99345" lon="3.64473">
        <ele>724</ele>
        <time>2022-04-15T06:42:36Z</time>
      </trkpt>
      <trkpt lat="45.993" lon="3.64494">
        <ele>723</ele>
        <time>2022-04-15T06:43:39Z</time>
      </trkpt>
      <trkpt lat="45.99184" lon="3.64471">
        <ele>723</ele>
        <time>2022-04-15T06:46:15Z</time>
      </trkpt>
      <trkpt lat="45.99086" lon="3.64379">
        <ele>718</ele>
        <time>2022-04-15T06:48:51Z</time>
      </trkpt>
      <trkpt lat="45.99029" lon="3.64296">
        <ele>721</ele>
        <time>2022-04-15T06:50:39Z</time>
      </trkpt>
      <trkpt lat="45.98986" lon="3.64294">
        <ele>714</ele>
        <time>2022-04-15T06:51:37Z</time>
      </trkpt>
      <trkpt lat="45.98909" lon="3.64226">
        <ele>710</ele>
        <time>2022-04-15T06:53:37Z</time>
      </trkpt>
      <trkpt lat="45.98805" lon="3.6431">
        <ele>686</ele>
        <time>2022-04-15T06:56:16Z</time>
      </trkpt>
      <trkpt lat="45.98781" lon="3.64308">
        <ele>684</ele>
        <time>2022-04-15T06:56:49Z</time>
      </trkpt>
      <trkpt lat="45.98798" lon="3.64211">
        <ele>694</ele>
        <time>2022-04-15T06:58:21Z</time>
      </trkpt>
      <trkpt lat="45.98793" lon="3.64165">
        <ele>699</ele>
        <time>2022-04-15T06:59:04Z</time>
      </trkpt>
      <trkpt lat="45.98737" lon="3.64174">
        <ele>696</ele>
        <time>2022-04-15T07:00:20Z</time>
      </trkpt>
      <trkpt lat="45.9867" lon="3.64133">
        <ele>702</ele>
        <time>2022-04-15T07:01:57Z</time>
      </trkpt>
      <trkpt lat="45.98581" lon="3.64031">
        <ele>712</ele>
        <time>2022-04-15T07:04:29Z</time>
      </trkpt>
      <trkpt lat="45.98558" lon="3.64023">
        <ele>713</ele>
        <time>2022-04-15T07:05:00Z</time>
      </trkpt>
      <trkpt lat="45.98511" lon="3.64042">
        <ele>708</ele>
        <time>2022-04-15T07:06:05Z</time>
      </trkpt>
      <trkpt lat="45.98456" lon="3.63968">
        <ele>723</ele>
        <time>2022-04-15T07:07:46Z</time>
      </trkpt>
      <trkpt lat="45.98346" lon="3.63916">
        <ele>728</ele>
        <time>2022-04-15T07:10:20Z</time>
      </trkpt>
    </trkseg>
  </trk>
</gpx>